Time;durP1;ratioP1;P1;durP2;ratioP2;P2;SDS_P1;SDS_P2;PMS_P1;PMS_P2;Temp;Humidity;BMP_temperature;BMP_pressure;BME280_temperature;BME280_humidity;BME280_pressure;Samples;Min_cycle;Max_cycle;Signal;HPM_P1;HPM_P2
2022/06/10 00:01:13;;;;;;;1.40;0.88;;;21.40;64.10;;;;;;5007766;28;20199;-70
2022/06/10 00:03:40;;;;;;;1.95;0.88;;;21.40;64.10;;;;;;5013517;28;20192;-70
2022/06/10 00:06:09;;;;;;;0.82;0.70;;;21.40;64.10;;;;;;5014036;28;20194;-70
2022/06/10 00:08:40;;;;;;;0.80;0.80;;;21.40;64.00;;;;;;4996681;28;20274;-70
2022/06/10 00:11:10;;;;;;;1.77;0.70;;;21.40;64.10;;;;;;5013352;28;20264;-70
2022/06/10 00:13:38;;;;;;;0.93;0.68;;;21.40;64.10;;;;;;5029572;28;20328;-70
2022/06/10 00:16:05;;;;;;;0.88;0.88;;;21.40;64.10;;;;;;5013459;28;20196;-70
2022/06/10 00:18:34;;;;;;;1.35;0.90;;;21.40;64.10;;;;;;5013216;28;20203;-70
2022/06/10 00:21:04;;;;;;;1.45;0.73;;;21.40;64.10;;;;;;5013490;28;20274;-69
2022/06/10 00:23:30;;;;;;;1.48;0.80;;;21.40;64.10;;;;;;5012774;28;20180;-70
2022/06/10 00:25:56;;;;;;;1.00;0.80;;;21.40;64.10;;;;;;4991893;28;20208;-70
2022/06/10 00:28:22;;;;;;;2.38;0.80;;;21.40;64.10;;;;;;5009192;28;20222;-70
2022/06/10 00:30:49;;;;;;;0.77;0.77;;;21.40;64.00;;;;;;5030411;28;20198;-69
2022/06/10 00:33:15;;;;;;;1.08;0.80;;;21.40;64.00;;;;;;5012505;28;20643;-69
2022/06/10 00:35:42;;;;;;;1.30;1.00;;;21.40;64.00;;;;;;5012982;28;20186;-70
2022/06/10 00:38:09;;;;;;;1.35;0.80;;;21.40;64.10;;;;;;5013160;28;20246;-70
2022/06/10 00:40:49;;;;;;;1.13;0.90;;;21.40;64.00;;;;;;5012856;28;20255;-70
2022/06/10 00:43:18;;;;;;;0.77;0.63;;;21.40;63.90;;;;;;5012778;28;20234;-70
2022/06/10 00:46:01;;;;;;;1.63;0.70;;;21.40;64.00;;;;;;5013290;28;20180;-70
2022/06/10 00:48:45;;;;;;;1.08;0.90;;;21.30;63.90;;;;;;4997268;28;20216;-70
2022/06/10 00:51:28;;;;;;;0.70;0.70;;;21.40;64.00;;;;;;4997748;28;20184;-70
2022/06/10 00:54:07;;;;;;;0.80;0.80;;;21.30;63.90;;;;;;5013529;28;20184;-70
2022/06/10 00:56:36;;;;;;;1.00;0.80;;;21.40;64.00;;;;;;5004346;28;20247;-70
2022/06/10 00:59:26;;;;;;;1.10;0.93;;;21.30;63.80;;;;;;4975666;28;20248;-70
2022/06/10 01:01:57;;;;;;;1.20;0.90;;;21.30;63.90;;;;;;4989118;28;20211;-70
2022/06/10 01:04:26;;;;;;;0.85;0.80;;;21.40;63.90;;;;;;4973630;28;20247;-70
2022/06/10 01:06:52;;;;;;;0.77;0.70;;;21.30;63.80;;;;;;4990255;28;20236;-70
2022/06/10 01:09:18;;;;;;;2.38;0.70;;;21.30;63.80;;;;;;4974436;28;20205;-69
2022/06/10 01:12:22;;;;;;;0.80;0.80;;;21.30;63.80;;;;;;4973431;28;20233;-70
2022/06/10 01:15:28;;;;;;;0.80;0.80;;;21.30;63.90;;;;;;4990319;28;20189;-70
2022/06/10 01:18:08;;;;;;;0.93;0.88;;;21.30;63.80;;;;;;4974976;28;20201;-70
2022/06/10 01:21:07;;;;;;;1.10;0.80;;;21.30;63.80;;;;;;4957818;28;20209;-70
2022/06/10 01:23:52;;;;;;;0.90;0.70;;;21.30;63.80;;;;;;4957347;28;20190;-70
2022/06/10 01:29:43;;;;;;;1.35;1.00;;;21.30;63.80;;;;;;5016919;28;20253;-70
2022/06/10 01:32:39;;;;;;;1.35;1.02;;;21.30;63.80;;;;;;4999054;28;20325;-70
2022/06/10 01:35:38;;;;;;;0.98;0.80;;;21.30;63.70;;;;;;5015978;28;20322;-70
2022/06/10 01:38:13;;;;;;;0.70;0.70;;;21.30;63.70;;;;;;5016508;28;20208;-70
2022/06/10 01:41:11;;;;;;;0.70;0.70;;;21.30;63.80;;;;;;4999873;28;20203;-69
2022/06/10 01:44:27;;;;;;;0.75;0.75;;;21.30;63.70;;;;;;5016878;28;20179;-70
2022/06/10 01:47:07;;;;;;;0.80;0.80;;;21.30;63.70;;;;;;4995784;28;20236;-69
2022/06/10 01:49:51;;;;;;;0.80;0.80;;;21.30;63.70;;;;;;5016281;28;20212;-70
2022/06/10 01:52:24;;;;;;;0.90;0.80;;;21.30;63.70;;;;;;5001540;28;20180;-70
2022/06/10 01:55:01;;;;;;;0.88;0.85;;;21.30;63.80;;;;;;4982048;28;20258;-70
2022/06/10 01:57:47;;;;;;;0.70;0.70;;;21.30;63.70;;;;;;4984465;28;20172;-69
2022/06/10 02:00:19;;;;;;;0.73;0.70;;;21.30;63.60;;;;;;4996427;28;20192;-70
2022/06/10 02:03:00;;;;;;;0.85;0.85;;;21.30;63.60;;;;;;5011600;28;20188;-70
2022/06/10 02:05:33;;;;;;;1.42;0.80;;;21.30;63.70;;;;;;5015880;28;20223;-70
2022/06/10 02:08:11;;;;;;;1.10;1.00;;;21.30;63.70;;;;;;5015655;28;20226;-70
2022/06/10 02:11:03;;;;;;;1.02;0.82;;;21.30;63.70;;;;;;5016263;28;20160;-70
2022/06/10 02:13:39;;;;;;;1.17;1.00;;;21.30;63.70;;;;;;5015678;28;20173;-70
2022/06/10 02:16:12;;;;;;;1.00;0.90;;;21.30;63.60;;;;;;5031773;28;20180;-70
2022/06/10 02:18:41;;;;;;;0.85;0.70;;;21.30;63.50;;;;;;5015935;28;20218;-70
2022/06/10 02:21:26;;;;;;;0.70;0.70;;;21.30;63.60;;;;;;5015464;28;20246;-70
2022/06/10 02:24:14;;;;;;;0.70;0.70;;;21.20;63.40;;;;;;5014687;28;20249;-70
2022/06/10 02:26:42;;;;;;;0.90;0.70;;;21.20;63.50;;;;;;4984368;28;20192;-70
2022/06/10 02:29:16;;;;;;;0.77;0.77;;;21.20;63.50;;;;;;5016466;28;20207;-70
2022/06/10 02:31:48;;;;;;;1.00;0.90;;;21.20;63.50;;;;;;5022820;28;20586;-69
2022/06/10 02:34:14;;;;;;;0.80;0.80;;;21.20;63.40;;;;;;4993048;28;20203;-69
2022/06/10 02:36:57;;;;;;;0.77;0.60;;;21.20;63.40;;;;;;4986820;28;20189;-69
2022/06/10 02:39:36;;;;;;;0.80;0.80;;;21.20;63.40;;;;;;5007569;28;20209;-70
2022/06/10 02:42:19;;;;;;;1.85;0.90;;;21.20;63.40;;;;;;4991954;28;20177;-69
2022/06/10 02:44:58;;;;;;;0.80;0.80;;;21.20;63.30;;;;;;4959643;28;20266;-70
2022/06/10 02:47:45;;;;;;;1.02;0.70;;;21.20;63.40;;;;;;4991243;28;20252;-70
2022/06/10 02:50:14;;;;;;;0.80;0.80;;;21.20;63.30;;;;;;4975137;28;20600;-70
2022/06/10 02:52:41;;;;;;;0.70;0.70;;;21.20;63.40;;;;;;4976120;28;20188;-70
2022/06/10 02:55:17;;;;;;;0.65;0.47;;;21.20;63.40;;;;;;4975834;28;20228;-70
2022/06/10 03:01:12;;;;;;;1.00;0.88;;;21.20;63.40;;;;;;5014504;28;20291;-70
2022/06/10 03:04:15;;;;;;;0.70;0.70;;;21.20;63.30;;;;;;5009912;28;20188;-69
2022/06/10 03:07:16;;;;;;;0.75;0.65;;;21.20;63.30;;;;;;5005811;28;20235;-70
2022/06/10 03:10:05;;;;;;;0.80;0.80;;;21.20;63.30;;;;;;4995431;28;20251;-70
2022/06/10 03:13:05;;;;;;;0.88;0.80;;;21.20;63.20;;;;;;4994652;28;20195;-70
2022/06/10 03:16:15;;;;;;;0.90;0.80;;;21.20;63.20;;;;;;4995658;28;20200;-70
2022/06/10 03:19:04;;;;;;;0.80;0.80;;;21.20;63.20;;;;;;4995459;28;20248;-69
2022/06/10 03:21:59;;;;;;;1.67;1.23;;;21.20;63.30;;;;;;5014388;28;20614;-70
2022/06/10 03:24:49;;;;;;;0.82;0.73;;;21.20;63.20;;;;;;4998265;28;20326;-70
2022/06/10 03:27:54;;;;;;;0.70;0.70;;;21.20;63.20;;;;;;5014264;28;20211;-70
2022/06/10 03:30:27;;;;;;;0.85;0.85;;;21.20;63.20;;;;;;5015261;28;20179;-70
2022/06/10 03:33:15;;;;;;;0.90;0.90;;;21.20;63.20;;;;;;5013964;28;20278;-70
2022/06/10 03:35:53;;;;;;;0.88;0.88;;;21.20;63.20;;;;;;5005765;28;20260;-70
2022/06/10 03:38:20;;;;;;;1.00;0.90;;;21.20;63.10;;;;;;5015831;28;20307;-70
2022/06/10 03:40:56;;;;;;;0.90;0.90;;;21.20;63.10;;;;;;4997929;28;20195;-69
2022/06/10 03:43:24;;;;;;;0.77;0.75;;;21.20;63.10;;;;;;5013477;28;20195;-70
2022/06/10 03:45:59;;;;;;;1.05;0.75;;;21.20;63.10;;;;;;5013853;28;20188;-70
2022/06/10 03:48:28;;;;;;;0.80;0.80;;;21.20;63.20;;;;;;5014360;28;20256;-69
2022/06/10 03:50:55;;;;;;;0.77;0.77;;;21.20;63.20;;;;;;4987605;28;20208;-70
2022/06/10 03:53:24;;;;;;;0.88;0.88;;;21.20;63.20;;;;;;4993781;28;20334;-70
2022/06/10 03:55:50;;;;;;;0.73;0.73;;;21.20;63.10;;;;;;4993973;28;20283;-70
2022/06/10 03:58:17;;;;;;;0.60;0.60;;;21.10;63.00;;;;;;4978199;28;20299;-69
2022/06/10 04:00:44;;;;;;;0.80;0.73;;;21.20;63.90;;;;;;4994077;28;20231;-70
2022/06/10 04:03:11;;;;;;;2.08;1.00;;;21.10;63.10;;;;;;4993675;28;20193;-70
2022/06/10 04:05:37;;;;;;;0.60;0.60;;;21.10;63.00;;;;;;4995662;28;20189;-69
2022/06/10 04:08:04;;;;;;;0.80;0.80;;;21.10;62.90;;;;;;5012748;28;20602;-70
2022/06/10 04:10:31;;;;;;;0.80;0.80;;;21.10;62.90;;;;;;5013232;28;20180;-70
2022/06/10 04:12:57;;;;;;;1.30;0.93;;;21.10;63.00;;;;;;5014128;28;20176;-70
2022/06/10 04:15:27;;;;;;;1.33;1.10;;;21.10;62.90;;;;;;5013368;28;20176;-70
2022/06/10 04:17:57;;;;;;;0.88;0.88;;;21.10;62.90;;;;;;5013547;28;20257;-70
2022/06/10 04:20:35;;;;;;;1.08;0.98;;;21.10;62.90;;;;;;4997170;28;20219;-70
2022/06/10 04:23:03;;;;;;;0.90;0.90;;;21.10;62.90;;;;;;4996720;28;20266;-70
2022/06/10 04:25:31;;;;;;;0.82;0.82;;;21.10;62.90;;;;;;5029724;28;20180;-70
2022/06/10 04:27:57;;;;;;;0.95;0.93;;;21.10;62.90;;;;;;4996941;28;20695;-70
2022/06/10 04:30:38;;;;;;;0.93;0.90;;;21.10;62.90;;;;;;5013427;28;20593;-70
2022/06/10 04:33:05;;;;;;;0.70;0.70;;;21.10;62.90;;;;;;5029082;28;20191;-70
2022/06/10 04:35:32;;;;;;;1.10;1.00;;;21.10;62.90;;;;;;5006373;28;20176;-70
2022/06/10 04:37:59;;;;;;;0.80;0.80;;;21.10;63.00;;;;;;4994199;28;20209;-69
2022/06/10 04:40:29;;;;;;;0.90;0.90;;;21.10;62.90;;;;;;4993807;28;20251;-70
2022/06/10 04:42:56;;;;;;;0.80;0.80;;;21.10;62.90;;;;;;4993458;28;20618;-70
2022/06/10 04:45:28;;;;;;;1.17;0.80;;;21.10;62.90;;;;;;4993538;28;20671;-70
2022/06/10 04:47:54;;;;;;;1.70;0.88;;;21.10;63.00;;;;;;4994003;28;20235;-70
2022/06/10 04:50:25;;;;;;;0.98;0.93;;;21.10;63.70;;;;;;4993314;28;20208;-70
2022/06/10 04:52:51;;;;;;;1.00;0.80;;;21.10;62.90;;;;;;4992816;28;20263;-70
2022/06/10 04:55:19;;;;;;;0.90;0.90;;;21.10;62.80;;;;;;4993644;28;20641;-70
2022/06/10 04:57:45;;;;;;;0.77;0.70;;;21.10;62.90;;;;;;4993410;28;20759;-70
2022/06/10 05:00:23;;;;;;;0.93;0.88;;;21.10;62.90;;;;;;4992925;28;20189;-70
2022/06/10 05:02:49;;;;;;;0.75;0.75;;;21.10;62.90;;;;;;4993426;28;20203;-70
2022/06/10 05:05:15;;;;;;;1.10;0.90;;;21.10;63.00;;;;;;5006458;28;20189;-70
2022/06/10 05:07:41;;;;;;;0.75;0.75;;;21.10;63.00;;;;;;5014599;28;20226;-70
2022/06/10 05:10:07;;;;;;;0.65;0.65;;;21.00;63.00;;;;;;5001365;28;20249;-70
2022/06/10 05:12:34;;;;;;;0.80;0.70;;;21.00;62.90;;;;;;5000832;28;20286;-70
2022/06/10 05:15:00;;;;;;;0.95;0.95;;;21.10;62.90;;;;;;5017613;28;20218;-70
2022/06/10 05:17:25;;;;;;;0.88;0.80;;;21.10;63.00;;;;;;5018196;28;20172;-70
2022/06/10 05:19:51;;;;;;;1.00;0.90;;;21.10;63.00;;;;;;5018541;28;20172;-70
2022/06/10 05:22:17;;;;;;;1.10;1.00;;;21.10;63.00;;;;;;4999931;28;20274;-70
2022/06/10 05:24:43;;;;;;;0.75;0.68;;;21.10;63.10;;;;;;5019058;28;20289;-70
2022/06/10 05:27:09;;;;;;;0.90;0.90;;;21.10;63.10;;;;;;5016238;28;20230;-70
2022/06/10 05:29:35;;;;;;;1.00;1.00;;;21.10;63.00;;;;;;4999843;28;20244;-70
2022/06/10 05:32:01;;;;;;;1.10;1.00;;;21.10;63.00;;;;;;5000575;28;20192;-69
2022/06/10 05:34:45;;;;;;;1.10;1.00;;;21.10;62.90;;;;;;4981217;28;20264;-70
2022/06/10 05:37:21;;;;;;;1.10;0.90;;;21.10;62.90;;;;;;5003974;28;20188;-70
2022/06/10 05:39:47;;;;;;;0.85;0.85;;;21.10;62.90;;;;;;4996861;28;20557;-70
2022/06/10 05:42:14;;;;;;;1.25;0.75;;;21.10;62.90;;;;;;4995777;28;20189;-70
2022/06/10 05:44:44;;;;;;;0.88;0.88;;;21.10;62.90;;;;;;4997534;28;20196;-71
2022/06/10 05:47:25;;;;;;;1.23;0.82;;;21.10;63.00;;;;;;4997944;28;20204;-70
2022/06/10 05:49:56;;;;;;;0.70;0.70;;;21.10;63.00;;;;;;4980518;28;20629;-70
2022/06/10 05:52:26;;;;;;;1.10;0.90;;;21.20;63.10;;;;;;4976484;28;20185;-69
2022/06/10 05:54:56;;;;;;;0.70;0.70;;;21.10;62.90;;;;;;4986118;28;20195;-70
2022/06/10 05:57:23;;;;;;;0.95;0.90;;;21.20;63.00;;;;;;5017168;28;20184;-70
2022/06/10 05:59:52;;;;;;;1.38;0.90;;;21.20;63.00;;;;;;5015884;28;20184;-70
2022/06/10 06:02:21;;;;;;;1.30;0.77;;;21.20;63.00;;;;;;4990733;28;20220;-70
2022/06/10 06:04:48;;;;;;;0.98;0.93;;;21.20;63.00;;;;;;4994050;28;20212;-69
2022/06/10 06:07:28;;;;;;;0.85;0.85;;;21.20;63.00;;;;;;4995789;28;20209;-69
2022/06/10 06:09:54;;;;;;;0.85;0.85;;;21.20;63.00;;;;;;4985219;28;20204;-70
2022/06/10 06:12:22;;;;;;;1.02;1.02;;;21.20;63.10;;;;;;4976351;28;20197;-70
2022/06/10 06:14:48;;;;;;;0.80;0.80;;;21.20;63.10;;;;;;4976373;28;20194;-70
2022/06/10 06:17:16;;;;;;;1.20;0.90;;;21.10;63.00;;;;;;4975921;28;20332;-69
2022/06/10 06:19:42;;;;;;;1.30;1.00;;;21.10;63.00;;;;;;4984185;28;20185;-70
2022/06/10 06:22:09;;;;;;;1.15;0.88;;;21.20;63.10;;;;;;4993742;28;20220;-70
2022/06/10 06:24:37;;;;;;;1.00;0.73;;;21.20;63.10;;;;;;4975916;28;20201;-70
2022/06/10 06:27:03;;;;;;;0.73;0.73;;;21.20;63.10;;;;;;4976093;28;20228;-70
2022/06/10 06:29:29;;;;;;;0.85;0.85;;;21.20;63.10;;;;;;4990643;28;20201;-70
2022/06/10 06:31:55;;;;;;;0.85;0.80;;;21.20;63.10;;;;;;4974737;28;20200;-68
2022/06/10 06:34:23;;;;;;;1.20;0.90;;;21.20;63.10;;;;;;4965690;28;20198;-70
2022/06/10 06:36:52;;;;;;;1.08;0.70;;;21.20;63.20;;;;;;5001265;28;20189;-70
2022/06/10 06:39:21;;;;;;;1.73;0.95;;;21.20;63.10;;;;;;4995590;28;20214;-70
2022/06/10 06:41:47;;;;;;;0.85;0.85;;;21.20;63.10;;;;;;4988458;28;20186;-70
2022/06/10 06:44:13;;;;;;;0.98;0.88;;;21.20;63.10;;;;;;4975648;28;20654;-70
2022/06/10 06:46:41;;;;;;;0.90;0.90;;;21.20;63.10;;;;;;4977075;28;20186;-70
2022/06/10 06:49:14;;;;;;;0.98;0.90;;;21.20;63.10;;;;;;4980706;28;20215;-70
2022/06/10 06:51:40;;;;;;;1.60;1.08;;;21.20;63.10;;;;;;4976833;28;20186;-70
2022/06/10 06:54:09;;;;;;;2.00;1.00;;;21.20;63.10;;;;;;4975267;28;20272;-70
2022/06/10 06:56:36;;;;;;;1.23;0.98;;;21.20;63.10;;;;;;4975119;28;20193;-70
2022/06/10 06:59:03;;;;;;;1.55;1.05;;;21.20;63.10;;;;;;4986744;28;20288;-70
2022/06/10 07:01:29;;;;;;;1.95;1.00;;;21.20;63.10;;;;;;4994611;28;20185;-69
2022/06/10 07:03:54;;;;;;;1.08;1.00;;;21.20;63.10;;;;;;4996186;28;20204;-70
2022/06/10 07:06:20;;;;;;;0.98;0.88;;;21.20;63.10;;;;;;4997742;28;20218;-70
2022/06/10 07:08:47;;;;;;;1.38;0.80;;;21.20;63.00;;;;;;4997646;28;20222;-69
2022/06/10 07:11:12;;;;;;;1.15;0.93;;;21.20;63.10;;;;;;5014033;28;20207;-70
2022/06/10 07:13:38;;;;;;;1.00;0.90;;;21.20;63.10;;;;;;5013170;28;20196;-70
2022/06/10 07:16:06;;;;;;;1.67;1.00;;;21.20;63.10;;;;;;4998084;28;20287;-70
2022/06/10 07:18:33;;;;;;;0.77;0.77;;;21.20;63.10;;;;;;4997879;28;20204;-70
2022/06/10 07:20:59;;;;;;;1.10;0.82;;;21.20;63.10;;;;;;5013894;28;20203;-70
2022/06/10 07:23:26;;;;;;;0.75;0.73;;;21.20;63.10;;;;;;5013677;28;20196;-70
2022/06/10 07:25:53;;;;;;;0.90;0.70;;;21.30;63.20;;;;;;5013858;28;20188;-70
2022/06/10 07:28:20;;;;;;;0.68;0.50;;;21.30;63.20;;;;;;4997214;28;20242;-70
2022/06/10 07:30:47;;;;;;;0.85;0.80;;;21.20;63.90;;;;;;4997366;28;20192;-70
2022/06/10 07:33:14;;;;;;;0.80;0.80;;;21.20;63.10;;;;;;5012310;28;20192;-70
2022/06/10 07:35:40;;;;;;;1.38;0.90;;;21.30;63.20;;;;;;4988202;28;20256;-70
2022/06/10 07:38:09;;;;;;;1.08;0.93;;;21.30;63.20;;;;;;5030887;28;20216;-69
2022/06/10 07:43:24;;;;;;;1.35;1.00;;;21.30;63.10;;;;;;5012385;28;20202;-70
2022/06/10 07:45:52;;;;;;;2.78;1.30;;;21.30;63.30;;;;;;5012660;28;20251;-70
2022/06/10 07:48:19;;;;;;;1.42;1.00;;;21.30;63.10;;;;;;5011865;28;20274;-69
2022/06/10 07:50:46;;;;;;;1.90;0.90;;;21.30;62.90;;;;;;4995861;28;20647;-69
2022/06/10 07:53:13;;;;;;;2.38;1.20;;;21.30;63.00;;;;;;5011959;28;20210;-69
2022/06/10 07:55:40;;;;;;;1.33;0.98;;;21.30;62.90;;;;;;4995854;28;20184;-69
2022/06/10 07:58:07;;;;;;;1.10;1.00;;;21.30;62.80;;;;;;5011980;28;20208;-70
2022/06/10 08:00:34;;;;;;;1.77;0.70;;;21.30;62.90;;;;;;5012067;28;20271;-70
2022/06/10 08:03:01;;;;;;;1.20;0.82;;;21.40;62.90;;;;;;5011725;28;20188;-69
2022/06/10 08:05:28;;;;;;;0.85;0.85;;;21.40;62.50;;;;;;5000983;28;20216;-69
2022/06/10 08:07:55;;;;;;;1.20;1.10;;;21.40;62.40;;;;;;4976455;28;20271;-69
2022/06/10 08:10:29;;;;;;;1.42;1.17;;;21.40;62.40;;;;;;4993554;28;20239;-69
2022/06/10 08:12:55;;;;;;;2.42;1.17;;;21.40;62.40;;;;;;4975643;28;20672;-69
2022/06/10 08:15:23;;;;;;;1.00;0.80;;;21.40;62.30;;;;;;5008406;28;20196;-69
2022/06/10 08:17:50;;;;;;;1.55;1.02;;;21.40;62.40;;;;;;4989271;28;20209;-69
2022/06/10 08:23:25;;;;;;;1.42;1.23;;;21.40;62.40;;;;;;4992034;28;20199;-69
2022/06/10 08:25:53;;;;;;;1.33;1.00;;;21.40;62.30;;;;;;4992637;28;20185;-70
2022/06/10 08:28:19;;;;;;;3.08;0.98;;;21.40;62.00;;;;;;4992540;28;20235;-69
2022/06/10 08:30:45;;;;;;;1.10;0.90;;;21.40;62.10;;;;;;4991911;28;20185;-70
2022/06/10 08:33:11;;;;;;;1.80;1.10;;;21.40;62.20;;;;;;4990964;28;20193;-69
2022/06/10 08:35:38;;;;;;;1.00;1.00;;;21.40;62.10;;;;;;5000191;28;20236;-69
2022/06/10 08:38:10;;;;;;;3.92;1.15;;;21.40;62.00;;;;;;4994024;28;20216;-69
2022/06/10 08:40:39;;;;;;;2.60;1.20;;;21.40;62.00;;;;;;4992234;28;20242;-69
2022/06/10 08:43:24;;;;;;;2.03;1.25;;;21.40;61.70;;;;;;4991602;28;20193;-69
2022/06/10 08:46:23;;;;;;;1.02;0.90;;;21.40;61.60;;;;;;4991662;28;20234;-69
2022/06/10 08:49:13;;;;;;;1.10;0.98;;;21.50;62.10;;;;;;4975515;28;20224;-69
2022/06/10 08:51:52;;;;;;;2.42;1.15;;;21.40;61.80;;;;;;4992611;28;20235;-69
2022/06/10 08:54:26;;;;;;;1.20;1.00;;;21.50;61.70;;;;;;4991378;28;20192;-69
2022/06/10 08:57:04;;;;;;;3.00;1.30;;;21.40;61.50;;;;;;4993052;28;20636;-69
2022/06/10 08:59:44;;;;;;;2.42;1.05;;;21.40;61.60;;;;;;4991810;28;20216;-69
2022/06/10 09:02:30;;;;;;;1.52;1.00;;;21.40;61.60;;;;;;4991541;28;20177;-69
2022/06/10 09:05:00;;;;;;;1.33;1.00;;;21.40;61.80;;;;;;5016101;28;20215;-69
2022/06/10 09:07:41;;;;;;;3.40;1.20;;;21.40;61.80;;;;;;4991312;28;20315;-69
2022/06/10 09:10:37;;;;;;;2.05;1.20;;;21.40;61.70;;;;;;4991821;28;20173;-69
2022/06/10 09:13:21;;;;;;;1.00;0.90;;;21.40;61.50;;;;;;4991194;28;20180;-69
2022/06/10 09:16:11;;;;;;;2.65;1.40;;;21.40;61.50;;;;;;4991564;28;20581;-69
2022/06/10 09:18:56;;;;;;;2.78;1.40;;;21.40;61.60;;;;;;4992013;28;20712;-69
2022/06/10 09:21:30;;;;;;;1.65;1.20;;;21.40;61.60;;;;;;4991367;28;20752;-69
2022/06/10 09:24:02;;;;;;;1.58;0.90;;;21.40;61.60;;;;;;4991296;28;20180;-69
2022/06/10 09:26:47;;;;;;;1.95;1.20;;;21.40;61.50;;;;;;4991543;28;20182;-69
2022/06/10 09:29:14;;;;;;;1.45;1.00;;;21.40;61.60;;;;;;4991526;28;20224;-70
2022/06/10 09:32:05;;;;;;;1.85;0.98;;;21.40;61.30;;;;;;4991358;28;20203;-69
2022/06/10 09:35:09;;;;;;;3.53;1.10;;;21.40;61.40;;;;;;4982801;28;20229;-69
2022/06/10 09:37:53;;;;;;;1.70;1.10;;;21.40;61.40;;;;;;4918767;28;20211;-69
2022/06/10 09:40:42;;;;;;;1.92;1.50;;;21.40;61.40;;;;;;4991504;28;20197;-69
2022/06/10 09:43:22;;;;;;;1.70;1.02;;;21.40;61.40;;;;;;4992314;28;20189;-70
2022/06/10 09:46:35;;;;;;;2.65;1.20;;;21.40;61.30;;;;;;4974240;28;20204;-71
2022/06/10 09:49:46;;;;;;;1.30;1.02;;;21.40;61.50;;;;;;4992595;28;20220;-69
2022/06/10 09:52:25;;;;;;;2.58;1.42;;;21.40;61.50;;;;;;4995035;28;20239;-70
2022/06/10 09:55:19;;;;;;;1.80;1.30;;;21.40;61.10;;;;;;4995750;28;20173;-70
2022/06/10 09:58:25;;;;;;;2.13;1.20;;;21.40;61.10;;;;;;4995575;28;20231;-70
2022/06/10 10:01:26;;;;;;;1.67;1.13;;;21.50;61.30;;;;;;4994805;28;20184;-70
2022/06/10 10:04:52;;;;;;;2.22;1.35;;;21.50;61.20;;;;;;4994572;28;20209;-70
2022/06/10 10:07:51;;;;;;;2.55;1.30;;;21.50;61.20;;;;;;5002460;28;20683;-70
2022/06/10 10:10:29;;;;;;;2.05;1.40;;;21.50;61.30;;;;;;5012659;28;20267;-70
2022/06/10 10:13:12;;;;;;;1.33;0.93;;;21.50;61.30;;;;;;5022024;28;20191;-70
2022/06/10 10:16:26;;;;;;;3.10;1.35;;;21.50;61.40;;;;;;4998332;28;20219;-70
2022/06/10 10:19:21;;;;;;;1.27;1.10;;;21.50;61.30;;;;;;4997916;28;20226;-70
2022/06/10 10:22:27;;;;;;;1.13;1.00;;;21.50;61.20;;;;;;5014899;28;20175;-70
2022/06/10 10:24:53;;;;;;;1.77;1.10;;;21.50;61.20;;;;;;4997771;28;20184;-70
2022/06/10 10:27:32;;;;;;;3.10;1.08;;;21.50;61.40;;;;;;4997495;28;20219;-69
2022/06/10 10:30:13;;;;;;;2.30;1.30;;;21.50;61.30;;;;;;5014149;28;20172;-70
2022/06/10 10:32:44;;;;;;;1.38;1.27;;;21.50;61.30;;;;;;4997012;28;20211;-70
2022/06/10 10:35:45;;;;;;;2.22;1.15;;;21.50;61.40;;;;;;4997294;28;20176;-69
2022/06/10 10:38:38;;;;;;;2.70;1.10;;;21.60;61.50;;;;;;4982565;28;20205;-70
2022/06/10 10:41:17;;;;;;;1.30;1.13;;;21.50;61.50;;;;;;5003199;28;20180;-71
2022/06/10 10:43:47;;;;;;;1.50;1.00;;;21.60;61.60;;;;;;5011125;28;20184;-68
2022/06/10 10:46:33;;;;;;;1.52;1.15;;;21.60;61.60;;;;;;5013489;28;20191;-70
2022/06/10 10:49:04;;;;;;;1.30;1.20;;;21.60;61.60;;;;;;4997080;28;20223;-70
2022/06/10 10:51:42;;;;;;;2.22;1.30;;;21.60;61.60;;;;;;4996910;28;20187;-70
2022/06/10 10:54:34;;;;;;;1.95;1.42;;;21.60;61.50;;;;;;5013107;28;20179;-70
2022/06/10 10:57:14;;;;;;;1.65;1.20;;;21.60;61.50;;;;;;5023425;28;20204;-70
2022/06/10 10:59:44;;;;;;;1.27;1.17;;;21.60;61.80;;;;;;5029950;28;20196;-70
2022/06/10 11:02:39;;;;;;;2.25;1.27;;;21.60;61.70;;;;;;4995870;28;20188;-70
2022/06/10 11:05:37;;;;;;;2.00;1.00;;;21.60;61.70;;;;;;5029748;28;20545;-70
2022/06/10 11:08:11;;;;;;;2.20;1.08;;;21.60;61.80;;;;;;5008489;28;20286;-70
2022/06/10 11:10:54;;;;;;;1.92;1.00;;;21.60;61.60;;;;;;5006315;28;20593;-70
2022/06/10 11:13:54;;;;;;;1.60;1.02;;;21.60;61.70;;;;;;5007252;28;20188;-70
2022/06/10 11:16:26;;;;;;;1.98;1.50;;;21.60;61.90;;;;;;5013181;28;20199;-70
2022/06/10 11:19:16;;;;;;;1.40;1.25;;;21.60;61.70;;;;;;4996711;28;20219;-70
2022/06/10 11:22:12;;;;;;;2.17;1.45;;;21.60;61.50;;;;;;5012801;28;20203;-70
2022/06/10 11:24:42;;;;;;;1.40;1.20;;;21.60;61.60;;;;;;5012289;28;20287;-70
2022/06/10 11:27:37;;;;;;;2.53;1.38;;;21.60;61.50;;;;;;4996549;28;20208;-69
2022/06/10 11:30:12;;;;;;;2.40;1.38;;;21.60;61.30;;;;;;5014157;28;20173;-70
2022/06/10 11:32:47;;;;;;;2.38;1.25;;;21.60;61.50;;;;;;5012294;28;20202;-70
2022/06/10 11:35:37;;;;;;;1.52;1.40;;;21.60;61.50;;;;;;5012457;28;20184;-70
2022/06/10 11:38:08;;;;;;;1.52;1.20;;;21.60;61.50;;;;;;5012928;28;20298;-70
2022/06/10 11:40:46;;;;;;;2.85;1.20;;;21.60;61.60;;;;;;5006410;28;20192;-70
2022/06/10 11:43:27;;;;;;;2.03;1.35;;;21.60;61.70;;;;;;4999254;28;20215;-70
2022/06/10 11:46:14;;;;;;;2.03;1.23;;;21.60;61.80;;;;;;5029153;28;20187;-70
2022/06/10 11:49:11;;;;;;;2.13;1.10;;;21.60;61.40;;;;;;4995977;28;20223;-70
2022/06/10 11:51:49;;;;;;;1.50;1.40;;;21.70;61.50;;;;;;5012357;28;20219;-70
2022/06/10 11:54:37;;;;;;;2.00;1.20;;;21.60;61.40;;;;;;5028669;28;20168;-70
2022/06/10 12:00:53;;;;;;;1.13;1.02;;;21.60;61.50;;;;;;4936740;29;20198;-71
2022/06/10 12:03:33;;;;;;;1.58;1.30;;;21.60;61.60;;;;;;5012057;28;20247;-70
2022/06/10 12:06:06;;;;;;;2.78;1.55;;;21.70;61.90;;;;;;4996001;28;20180;-70
2022/06/10 12:08:45;;;;;;;1.38;1.08;;;21.70;61.90;;;;;;5017924;28;20211;-70
2022/06/10 12:11:26;;;;;;;2.22;1.52;;;21.60;61.70;;;;;;5001235;28;20219;-70
2022/06/10 12:14:16;;;;;;;1.50;1.00;;;21.60;61.60;;;;;;5010741;28;20215;-70
2022/06/10 12:16:52;;;;;;;2.50;1.40;;;21.60;61.70;;;;;;5013396;28;20172;-70
2022/06/10 12:19:27;;;;;;;1.58;1.35;;;21.70;61.90;;;;;;4995488;28;20222;-70
2022/06/10 12:21:53;;;;;;;2.15;1.40;;;21.60;62.00;;;;;;5011708;28;20670;-70
2022/06/10 12:24:20;;;;;;;1.83;1.40;;;21.60;61.90;;;;;;5012577;28;20184;-70
2022/06/10 12:27:01;;;;;;;2.15;1.40;;;21.60;61.90;;;;;;5012397;28;20574;-70
2022/06/10 12:29:54;;;;;;;1.42;1.23;;;21.70;62.10;;;;;;4992398;28;20275;-70
2022/06/10 12:32:53;;;;;;;2.15;1.23;;;21.60;62.00;;;;;;4993639;28;20183;-70
2022/06/10 12:35:25;;;;;;;1.40;1.10;;;21.70;62.10;;;;;;4976235;28;20284;-70
2022/06/10 12:38:09;;;;;;;1.98;1.00;;;21.60;61.70;;;;;;4992158;28;20209;-70
2022/06/10 12:40:57;;;;;;;1.75;1.30;;;21.70;61.80;;;;;;4999881;28;20230;-70
2022/06/10 12:43:31;;;;;;;1.35;1.00;;;21.60;61.60;;;;;;5001061;28;20176;-70
2022/06/10 12:46:05;;;;;;;2.03;1.27;;;21.70;62.00;;;;;;4995692;28;20183;-70
2022/06/10 12:48:46;;;;;;;2.72;1.40;;;21.60;61.60;;;;;;4995151;28;20228;-69
2022/06/10 12:51:12;;;;;;;1.77;1.15;;;21.70;61.70;;;;;;4995179;28;20172;-69
2022/06/10 12:54:02;;;;;;;1.05;0.98;;;21.70;61.80;;;;;;5011113;28;20237;-70
2022/06/10 12:56:32;;;;;;;1.13;1.00;;;21.60;61.70;;;;;;5011995;28;20192;-70
2022/06/10 12:59:04;;;;;;;1.88;1.30;;;21.60;61.80;;;;;;5012906;28;20203;-69
2022/06/10 13:01:30;;;;;;;2.15;1.00;;;21.60;61.60;;;;;;4995567;28;20172;-70
2022/06/10 13:04:22;;;;;;;1.67;1.30;;;21.60;61.40;;;;;;4994648;28;20561;-70
2022/06/10 13:07:00;;;;;;;1.55;1.10;;;21.70;61.60;;;;;;4994930;28;20196;-69
2022/06/10 13:09:36;;;;;;;1.40;1.30;;;21.70;61.80;;;;;;5011503;28;20212;-70
2022/06/10 13:12:08;;;;;;;2.28;1.27;;;21.70;61.60;;;;;;4991921;28;20183;-70
2022/06/10 13:14:33;;;;;;;1.30;0.95;;;21.70;61.70;;;;;;4991083;28;20281;-70
2022/06/10 13:16:59;;;;;;;1.42;1.33;;;21.70;61.70;;;;;;4991836;28;20189;-70
2022/06/10 13:19:43;;;;;;;1.38;1.27;;;21.70;61.50;;;;;;4993541;28;20733;-70
2022/06/10 13:22:21;;;;;;;1.30;1.20;;;21.70;62.10;;;;;;4992016;28;20187;-69
2022/06/10 13:25:10;;;;;;;1.42;1.20;;;21.70;61.70;;;;;;4994071;28;20195;-70
2022/06/10 13:27:39;;;;;;;1.83;1.40;;;21.70;61.70;;;;;;4996037;28;20279;-69
2022/06/10 13:30:23;;;;;;;1.52;1.20;;;21.70;61.80;;;;;;4996831;28;20192;-70
2022/06/10 13:33:02;;;;;;;1.25;1.15;;;21.70;61.50;;;;;;5012484;28;20200;-69
2022/06/10 13:35:44;;;;;;;1.48;1.20;;;21.60;61.60;;;;;;4986160;28;20188;-70
2022/06/10 13:38:34;;;;;;;3.03;1.10;;;21.70;61.50;;;;;;4961588;28;20220;-70
2022/06/10 13:44:20;;;;;;;1.38;1.20;;;21.70;61.20;;;;;;5032093;28;20250;-70
2022/06/10 13:46:47;;;;;;;1.20;1.10;;;21.70;61.10;;;;;;5015565;28;20180;-70
2022/06/10 13:52:30;;;;;;;1.20;1.10;;;21.70;61.50;;;;;;5015473;28;20185;-70
2022/06/10 13:55:18;;;;;;;2.92;1.05;;;21.70;61.20;;;;;;4999784;28;20179;-70
2022/06/10 13:57:45;;;;;;;1.27;1.10;;;21.70;61.30;;;;;;5015266;28;20224;-70